sensor_id;sensor_type;location;lat;lon;timestamp;P1;durP1;ratioP1;P2;durP2;ratioP2
12412;SDS011;13877;18.896;-99.222;2023-10-31T00:01:17;22.48;;;13.43;;
12412;SDS011;13877;18.896;-99.222;2023-10-31T00:03:45;26.30;;;14.43;;
12412;SDS011;13877;18.896;-99.222;2023-10-31T00:06:12;35.30;;;14.55;;
12412;SDS011;13877;18.896;-99.222;2023-10-31T00:08:39;25.17;;;14.15;;
12412;SDS011;13877;18.896;-99.222;2023-10-31T00:11:06;26.15;;;14.90;;
12412;SDS011;13877;18.896;-99.222;2023-10-31T00:13:33;35.03;;;14.75;;
12412;SDS011;13877;18.896;-99.222;2023-10-31T00:16:01;29.80;;;15.65;;
12412;SDS011;13877;18.896;-99.222;2023-10-31T00:18:28;44.88;;;16.33;;
12412;SDS011;13877;18.896;-99.222;2023-10-31T00:20:55;32.13;;;16.73;;
12412;SDS011;13877;18.896;-99.222;2023-10-31T00:23:22;30.23;;;17.48;;
12412;SDS011;13877;18.896;-99.222;2023-10-31T00:25:50;47.78;;;18.25;;
12412;SDS011;13877;18.896;-99.222;2023-10-31T00:28:17;64.45;;;25.27;;
12412;SDS011;13877;18.896;-99.222;2023-10-31T00:30:45;53.67;;;20.83;;
12412;SDS011;13877;18.896;-99.222;2023-10-31T00:33:11;41.00;;;18.48;;
12412;SDS011;13877;18.896;-99.222;2023-10-31T00:35:38;35.05;;;17.67;;
12412;SDS011;13877;18.896;-99.222;2023-10-31T00:38:05;41.05;;;17.38;;
12412;SDS011;13877;18.896;-99.222;2023-10-31T00:40:32;42.75;;;21.63;;
12412;SDS011;13877;18.896;-99.222;2023-10-31T00:42:59;48.35;;;21.08;;
12412;SDS011;13877;18.896;-99.222;2023-10-31T00:45:27;45.33;;;21.40;;
12412;SDS011;13877;18.896;-99.222;2023-10-31T00:47:53;53.35;;;23.58;;
12412;SDS011;13877;18.896;-99.222;2023-10-31T00:50:21;57.13;;;27.42;;
12412;SDS011;13877;18.896;-99.222;2023-10-31T00:52:48;42.97;;;23.25;;
12412;SDS011;13877;18.896;-99.222;2023-10-31T00:55:15;41.65;;;21.52;;
12412;SDS011;13877;18.896;-99.222;2023-10-31T00:57:42;37.30;;;20.58;;
12412;SDS011;13877;18.896;-99.222;2023-10-31T01:00:11;40.92;;;20.75;;
12412;SDS011;13877;18.896;-99.222;2023-10-31T01:02:38;45.80;;;20.88;;
12412;SDS011;13877;18.896;-99.222;2023-10-31T01:05:05;40.08;;;20.65;;
12412;SDS011;13877;18.896;-99.222;2023-10-31T01:07:32;35.50;;;19.95;;
12412;SDS011;13877;18.896;-99.222;2023-10-31T01:10:00;35.25;;;19.48;;
12412;SDS011;13877;18.896;-99.222;2023-10-31T01:12:27;42.67;;;19.77;;
12412;SDS011;13877;18.896;-99.222;2023-10-31T01:14:54;47.67;;;22.50;;
12412;SDS011;13877;18.896;-99.222;2023-10-31T01:17:21;36.92;;;21.52;;
12412;SDS011;13877;18.896;-99.222;2023-10-31T01:19:48;47.58;;;22.67;;
12412;SDS011;13877;18.896;-99.222;2023-10-31T01:22:15;47.03;;;22.05;;
12412;SDS011;13877;18.896;-99.222;2023-10-31T01:24:42;47.88;;;21.73;;
12412;SDS011;13877;18.896;-99.222;2023-10-31T01:27:09;51.90;;;23.52;;
12412;SDS011;13877;18.896;-99.222;2023-10-31T01:29:36;46.47;;;23.10;;
12412;SDS011;13877;18.896;-99.222;2023-10-31T01:32:03;44.60;;;24.17;;
12412;SDS011;13877;18.896;-99.222;2023-10-31T01:34:31;49.92;;;26.05;;
12412;SDS011;13877;18.896;-99.222;2023-10-31T01:36:57;46.78;;;24.08;;
12412;SDS011;13877;18.896;-99.222;2023-10-31T01:39:26;41.17;;;22.98;;
12412;SDS011;13877;18.896;-99.222;2023-10-31T01:41:53;41.05;;;23.30;;
12412;SDS011;13877;18.896;-99.222;2023-10-31T01:44:22;60.25;;;25.00;;
12412;SDS011;13877;18.896;-99.222;2023-10-31T01:46:48;59.97;;;25.00;;
12412;SDS011;13877;18.896;-99.222;2023-10-31T01:49:16;59.67;;;26.67;;
12412;SDS011;13877;18.896;-99.222;2023-10-31T01:51:44;51.17;;;25.10;;
12412;SDS011;13877;18.896;-99.222;2023-10-31T01:54:12;47.47;;;25.35;;
12412;SDS011;13877;18.896;-99.222;2023-10-31T01:56:39;49.60;;;24.30;;
12412;SDS011;13877;18.896;-99.222;2023-10-31T01:59:08;47.33;;;24.50;;
12412;SDS011;13877;18.896;-99.222;2023-10-31T02:01:38;51.25;;;25.52;;
12412;SDS011;13877;18.896;-99.222;2023-10-31T02:04:06;52.40;;;25.98;;
12412;SDS011;13877;18.896;-99.222;2023-10-31T02:06:33;52.78;;;26.23;;
12412;SDS011;13877;18.896;-99.222;2023-10-31T02:09:00;49.53;;;25.63;;
12412;SDS011;13877;18.896;-99.222;2023-10-31T02:11:27;56.40;;;27.65;;
12412;SDS011;13877;18.896;-99.222;2023-10-31T02:13:54;72.53;;;34.05;;
12412;SDS011;13877;18.896;-99.222;2023-10-31T02:16:20;71.97;;;33.30;;
12412;SDS011;13877;18.896;-99.222;2023-10-31T02:18:48;62.45;;;31.88;;
12412;SDS011;13877;18.896;-99.222;2023-10-31T02:21:15;55.08;;;30.98;;
12412;SDS011;13877;18.896;-99.222;2023-10-31T02:23:57;75.07;;;37.33;;
12412;SDS011;13877;18.896;-99.222;2023-10-31T02:26:32;80.65;;;40.22;;
12412;SDS011;13877;18.896;-99.222;2023-10-31T02:29:01;63.35;;;35.65;;
12412;SDS011;13877;18.896;-99.222;2023-10-31T02:31:28;102.35;;;45.65;;
12412;SDS011;13877;18.896;-99.222;2023-10-31T02:33:55;102.07;;;45.42;;
12412;SDS011;13877;18.896;-99.222;2023-10-31T02:36:22;107.13;;;44.92;;
12412;SDS011;13877;18.896;-99.222;2023-10-31T02:38:49;101.70;;;45.95;;
12412;SDS011;13877;18.896;-99.222;2023-10-31T02:41:16;87.03;;;39.17;;
12412;SDS011;13877;18.896;-99.222;2023-10-31T02:43:43;75.43;;;33.17;;
12412;SDS011;13877;18.896;-99.222;2023-10-31T02:46:09;73.97;;;32.17;;
12412;SDS011;13877;18.896;-99.222;2023-10-31T02:48:39;66.75;;;30.90;;
12412;SDS011;13877;18.896;-99.222;2023-10-31T02:51:06;67.18;;;29.35;;
12412;SDS011;13877;18.896;-99.222;2023-10-31T02:53:34;55.75;;;28.52;;
12412;SDS011;13877;18.896;-99.222;2023-10-31T02:56:02;63.35;;;27.02;;
12412;SDS011;13877;18.896;-99.222;2023-10-31T02:58:29;51.53;;;23.67;;
12412;SDS011;13877;18.896;-99.222;2023-10-31T03:00:56;51.85;;;21.60;;
12412;SDS011;13877;18.896;-99.222;2023-10-31T03:03:24;46.30;;;20.80;;
12412;SDS011;13877;18.896;-99.222;2023-10-31T03:05:52;54.97;;;21.83;;
12412;SDS011;13877;18.896;-99.222;2023-10-31T03:08:19;47.67;;;22.55;;
12412;SDS011;13877;18.896;-99.222;2023-10-31T03:10:47;75.93;;;33.10;;
12412;SDS011;13877;18.896;-99.222;2023-10-31T03:13:19;67.93;;;30.85;;
12412;SDS011;13877;18.896;-99.222;2023-10-31T03:15:46;66.07;;;29.30;;
12412;SDS011;13877;18.896;-99.222;2023-10-31T03:18:13;70.07;;;30.20;;
12412;SDS011;13877;18.896;-99.222;2023-10-31T03:20:43;71.05;;;29.83;;
12412;SDS011;13877;18.896;-99.222;2023-10-31T03:23:12;59.05;;;29.50;;
12412;SDS011;13877;18.896;-99.222;2023-10-31T03:25:39;56.90;;;26.88;;
12412;SDS011;13877;18.896;-99.222;2023-10-31T03:28:09;51.28;;;24.83;;
12412;SDS011;13877;18.896;-99.222;2023-10-31T03:30:46;55.03;;;25.10;;
12412;SDS011;13877;18.896;-99.222;2023-10-31T03:33:13;57.90;;;24.85;;
12412;SDS011;13877;18.896;-99.222;2023-10-31T03:35:42;50.63;;;24.77;;
12412;SDS011;13877;18.896;-99.222;2023-10-31T03:38:09;53.35;;;22.73;;
12412;SDS011;13877;18.896;-99.222;2023-10-31T03:40:37;54.30;;;23.95;;
12412;SDS011;13877;18.896;-99.222;2023-10-31T03:43:04;44.75;;;21.98;;
12412;SDS011;13877;18.896;-99.222;2023-10-31T03:45:31;50.53;;;22.15;;
12412;SDS011;13877;18.896;-99.222;2023-10-31T03:47:58;41.13;;;19.77;;
12412;SDS011;13877;18.896;-99.222;2023-10-31T03:50:25;39.53;;;20.20;;
12412;SDS011;13877;18.896;-99.222;2023-10-31T03:52:52;40.70;;;19.65;;
12412;SDS011;13877;18.896;-99.222;2023-10-31T03:55:19;38.97;;;20.02;;
12412;SDS011;13877;18.896;-99.222;2023-10-31T03:57:46;38.05;;;18.75;;
12412;SDS011;13877;18.896;-99.222;2023-10-31T04:00:13;290.50;;;46.85;;
12412;SDS011;13877;18.896;-99.222;2023-10-31T04:02:41;289.67;;;56.10;;
12412;SDS011;13877;18.896;-99.222;2023-10-31T04:05:08;34.88;;;16.08;;
12412;SDS011;13877;18.896;-99.222;2023-10-31T04:07:35;46.55;;;14.70;;
12412;SDS011;13877;18.896;-99.222;2023-10-31T04:10:02;39.25;;;16.70;;
12412;SDS011;13877;18.896;-99.222;2023-10-31T04:12:29;37.45;;;15.77;;
12412;SDS011;13877;18.896;-99.222;2023-10-31T04:14:56;45.20;;;16.10;;
12412;SDS011;13877;18.896;-99.222;2023-10-31T04:17:23;27.85;;;11.32;;
12412;SDS011;13877;18.896;-99.222;2023-10-31T04:19:51;29.05;;;12.63;;
12412;SDS011;13877;18.896;-99.222;2023-10-31T04:22:18;24.27;;;11.65;;
12412;SDS011;13877;18.896;-99.222;2023-10-31T04:24:45;19.60;;;11.10;;
12412;SDS011;13877;18.896;-99.222;2023-10-31T04:27:12;26.75;;;13.10;;
12412;SDS011;13877;18.896;-99.222;2023-10-31T04:29:39;27.30;;;10.57;;
12412;SDS011;13877;18.896;-99.222;2023-10-31T04:32:06;28.33;;;11.27;;
12412;SDS011;13877;18.896;-99.222;2023-10-31T04:34:33;20.85;;;12.02;;
12412;SDS011;13877;18.896;-99.222;2023-10-31T04:37:00;22.48;;;12.32;;
12412;SDS011;13877;18.896;-99.222;2023-10-31T04:39:27;27.80;;;12.73;;
12412;SDS011;13877;18.896;-99.222;2023-10-31T04:41:54;24.98;;;13.68;;
12412;SDS011;13877;18.896;-99.222;2023-10-31T04:44:20;26.83;;;13.10;;
12412;SDS011;13877;18.896;-99.222;2023-10-31T04:46:47;34.08;;;13.70;;
12412;SDS011;13877;18.896;-99.222;2023-10-31T04:49:14;31.75;;;13.25;;
12412;SDS011;13877;18.896;-99.222;2023-10-31T04:51:41;27.45;;;12.50;;
12412;SDS011;13877;18.896;-99.222;2023-10-31T04:54:09;25.88;;;13.43;;
12412;SDS011;13877;18.896;-99.222;2023-10-31T04:56:36;28.70;;;12.15;;
12412;SDS011;13877;18.896;-99.222;2023-10-31T04:59:03;26.48;;;11.32;;
12412;SDS011;13877;18.896;-99.222;2023-10-31T05:01:30;30.90;;;12.73;;
12412;SDS011;13877;18.896;-99.222;2023-10-31T05:03:57;30.20;;;13.63;;
12412;SDS011;13877;18.896;-99.222;2023-10-31T05:06:23;29.50;;;12.13;;
12412;SDS011;13877;18.896;-99.222;2023-10-31T05:08:51;29.00;;;12.32;;
12412;SDS011;13877;18.896;-99.222;2023-10-31T05:11:18;23.98;;;11.75;;
12412;SDS011;13877;18.896;-99.222;2023-10-31T05:13:45;22.27;;;11.77;;
12412;SDS011;13877;18.896;-99.222;2023-10-31T05:16:12;25.25;;;11.02;;
12412;SDS011;13877;18.896;-99.222;2023-10-31T05:18:39;29.50;;;11.45;;
12412;SDS011;13877;18.896;-99.222;2023-10-31T05:21:06;20.20;;;10.35;;
12412;SDS011;13877;18.896;-99.222;2023-10-31T05:23:33;15.52;;;9.68;;
12412;SDS011;13877;18.896;-99.222;2023-10-31T05:26:00;24.58;;;9.45;;
12412;SDS011;13877;18.896;-99.222;2023-10-31T05:28:27;21.98;;;9.43;;
12412;SDS011;13877;18.896;-99.222;2023-10-31T05:30:53;20.00;;;9.35;;
12412;SDS011;13877;18.896;-99.222;2023-10-31T05:33:21;18.00;;;8.63;;
12412;SDS011;13877;18.896;-99.222;2023-10-31T05:35:48;20.13;;;9.40;;
12412;SDS011;13877;18.896;-99.222;2023-10-31T05:38:16;26.08;;;9.43;;
12412;SDS011;13877;18.896;-99.222;2023-10-31T05:40:43;19.23;;;7.22;;
12412;SDS011;13877;18.896;-99.222;2023-10-31T05:43:10;18.88;;;7.90;;
12412;SDS011;13877;18.896;-99.222;2023-10-31T05:45:37;22.27;;;6.95;;
12412;SDS011;13877;18.896;-99.222;2023-10-31T05:48:04;20.25;;;5.63;;
12412;SDS011;13877;18.896;-99.222;2023-10-31T05:50:31;14.23;;;5.38;;
12412;SDS011;13877;18.896;-99.222;2023-10-31T05:52:58;15.27;;;7.20;;
12412;SDS011;13877;18.896;-99.222;2023-10-31T05:55:24;14.73;;;6.47;;
12412;SDS011;13877;18.896;-99.222;2023-10-31T05:57:53;17.98;;;7.22;;
12412;SDS011;13877;18.896;-99.222;2023-10-31T06:00:19;19.38;;;6.85;;
12412;SDS011;13877;18.896;-99.222;2023-10-31T06:02:46;16.40;;;7.30;;
12412;SDS011;13877;18.896;-99.222;2023-10-31T06:05:13;16.08;;;8.23;;
12412;SDS011;13877;18.896;-99.222;2023-10-31T06:07:40;16.95;;;6.80;;
12412;SDS011;13877;18.896;-99.222;2023-10-31T06:10:07;20.65;;;7.60;;
12412;SDS011;13877;18.896;-99.222;2023-10-31T06:12:34;19.83;;;7.30;;
12412;SDS011;13877;18.896;-99.222;2023-10-31T06:15:01;24.65;;;6.68;;
12412;SDS011;13877;18.896;-99.222;2023-10-31T06:17:29;16.05;;;6.63;;
12412;SDS011;13877;18.896;-99.222;2023-10-31T06:19:59;17.85;;;7.32;;
12412;SDS011;13877;18.896;-99.222;2023-10-31T06:22:27;14.60;;;6.63;;
12412;SDS011;13877;18.896;-99.222;2023-10-31T06:24:54;18.35;;;7.03;;
12412;SDS011;13877;18.896;-99.222;2023-10-31T06:27:22;18.15;;;5.85;;
12412;SDS011;13877;18.896;-99.222;2023-10-31T06:29:49;15.88;;;7.18;;
12412;SDS011;13877;18.896;-99.222;2023-10-31T06:32:16;15.60;;;6.43;;
12412;SDS011;13877;18.896;-99.222;2023-10-31T06:34:43;15.00;;;6.75;;
12412;SDS011;13877;18.896;-99.222;2023-10-31T06:37:10;13.98;;;6.28;;
12412;SDS011;13877;18.896;-99.222;2023-10-31T06:39:37;14.48;;;7.05;;
12412;SDS011;13877;18.896;-99.222;2023-10-31T06:42:04;11.85;;;6.07;;
12412;SDS011;13877;18.896;-99.222;2023-10-31T06:44:31;14.63;;;6.10;;
12412;SDS011;13877;18.896;-99.222;2023-10-31T06:46:58;14.93;;;6.40;;
12412;SDS011;13877;18.896;-99.222;2023-10-31T06:49:25;10.52;;;5.60;;
12412;SDS011;13877;18.896;-99.222;2023-10-31T06:51:52;12.68;;;6.25;;
12412;SDS011;13877;18.896;-99.222;2023-10-31T06:54:19;13.02;;;6.05;;
12412;SDS011;13877;18.896;-99.222;2023-10-31T06:56:46;13.93;;;6.05;;
12412;SDS011;13877;18.896;-99.222;2023-10-31T06:59:13;11.80;;;5.13;;
12412;SDS011;13877;18.896;-99.222;2023-10-31T07:01:40;14.52;;;5.68;;
12412;SDS011;13877;18.896;-99.222;2023-10-31T07:04:09;18.23;;;5.65;;
12412;SDS011;13877;18.896;-99.222;2023-10-31T07:06:35;18.75;;;5.45;;
12412;SDS011;13877;18.896;-99.222;2023-10-31T07:09:02;15.85;;;5.20;;
12412;SDS011;13877;18.896;-99.222;2023-10-31T07:11:31;11.65;;;5.47;;
12412;SDS011;13877;18.896;-99.222;2023-10-31T07:14:03;19.52;;;5.28;;
12412;SDS011;13877;18.896;-99.222;2023-10-31T07:16:31;10.15;;;5.55;;
12412;SDS011;13877;18.896;-99.222;2023-10-31T07:18:58;17.00;;;5.75;;
12412;SDS011;13877;18.896;-99.222;2023-10-31T07:21:25;11.70;;;5.30;;
12412;SDS011;13877;18.896;-99.222;2023-10-31T07:23:52;12.45;;;5.15;;
12412;SDS011;13877;18.896;-99.222;2023-10-31T07:26:19;14.23;;;4.15;;
12412;SDS011;13877;18.896;-99.222;2023-10-31T07:28:46;11.95;;;4.50;;
12412;SDS011;13877;18.896;-99.222;2023-10-31T07:31:14;14.40;;;4.47;;
12412;SDS011;13877;18.896;-99.222;2023-10-31T07:33:42;10.15;;;4.18;;
12412;SDS011;13877;18.896;-99.222;2023-10-31T07:36:11;12.20;;;4.20;;
12412;SDS011;13877;18.896;-99.222;2023-10-31T07:38:38;7.78;;;4.10;;
12412;SDS011;13877;18.896;-99.222;2023-10-31T07:41:04;16.95;;;4.10;;
12412;SDS011;13877;18.896;-99.222;2023-10-31T07:43:31;7.57;;;4.00;;
12412;SDS011;13877;18.896;-99.222;2023-10-31T07:45:58;8.05;;;3.33;;
12412;SDS011;13877;18.896;-99.222;2023-10-31T07:48:25;10.00;;;3.58;;
12412;SDS011;13877;18.896;-99.222;2023-10-31T07:50:52;13.23;;;3.15;;
12412;SDS011;13877;18.896;-99.222;2023-10-31T07:53:21;11.35;;;3.50;;
12412;SDS011;13877;18.896;-99.222;2023-10-31T07:55:48;11.82;;;3.45;;
12412;SDS011;13877;18.896;-99.222;2023-10-31T07:58:15;7.93;;;2.88;;
12412;SDS011;13877;18.896;-99.222;2023-10-31T08:00:42;7.90;;;3.30;;
12412;SDS011;13877;18.896;-99.222;2023-10-31T08:03:09;10.98;;;3.60;;
12412;SDS011;13877;18.896;-99.222;2023-10-31T08:05:37;8.00;;;3.50;;
12412;SDS011;13877;18.896;-99.222;2023-10-31T08:08:04;6.25;;;3.42;;
12412;SDS011;13877;18.896;-99.222;2023-10-31T08:10:31;11.18;;;4.03;;
12412;SDS011;13877;18.896;-99.222;2023-10-31T08:13:00;16.33;;;3.75;;
12412;SDS011;13877;18.896;-99.222;2023-10-31T08:15:27;11.73;;;3.45;;
12412;SDS011;13877;18.896;-99.222;2023-10-31T08:17:54;8.35;;;3.30;;
12412;SDS011;13877;18.896;-99.222;2023-10-31T08:20:20;8.13;;;3.03;;
12412;SDS011;13877;18.896;-99.222;2023-10-31T08:22:47;6.60;;;3.45;;
12412;SDS011;13877;18.896;-99.222;2023-10-31T08:25:14;8.40;;;3.53;;
12412;SDS011;13877;18.896;-99.222;2023-10-31T08:27:41;9.73;;;3.30;;
12412;SDS011;13877;18.896;-99.222;2023-10-31T08:30:08;7.25;;;3.20;;
12412;SDS011;13877;18.896;-99.222;2023-10-31T08:32:35;5.75;;;3.22;;
12412;SDS011;13877;18.896;-99.222;2023-10-31T08:35:02;12.85;;;2.95;;
12412;SDS011;13877;18.896;-99.222;2023-10-31T08:37:29;13.85;;;3.08;;
12412;SDS011;13877;18.896;-99.222;2023-10-31T08:39:56;4.70;;;2.70;;
12412;SDS011;13877;18.896;-99.222;2023-10-31T08:42:23;6.38;;;3.00;;
12412;SDS011;13877;18.896;-99.222;2023-10-31T08:44:49;9.20;;;2.30;;
12412;SDS011;13877;18.896;-99.222;2023-10-31T08:47:16;7.57;;;2.72;;
12412;SDS011;13877;18.896;-99.222;2023-10-31T08:49:44;13.43;;;2.75;;
12412;SDS011;13877;18.896;-99.222;2023-10-31T08:52:11;12.32;;;2.67;;
12412;SDS011;13877;18.896;-99.222;2023-10-31T08:54:37;4.93;;;2.40;;
12412;SDS011;13877;18.896;-99.222;2023-10-31T08:57:05;2.83;;;2.20;;
12412;SDS011;13877;18.896;-99.222;2023-10-31T08:59:32;8.20;;;2.80;;
12412;SDS011;13877;18.896;-99.222;2023-10-31T09:01:59;7.22;;;2.75;;
12412;SDS011;13877;18.896;-99.222;2023-10-31T09:04:26;4.97;;;2.72;;
12412;SDS011;13877;18.896;-99.222;2023-10-31T09:06:53;6.63;;;2.60;;
12412;SDS011;13877;18.896;-99.222;2023-10-31T09:09:20;5.07;;;2.50;;
12412;SDS011;13877;18.896;-99.222;2023-10-31T09:11:47;7.07;;;2.90;;
12412;SDS011;13877;18.896;-99.222;2023-10-31T09:14:13;3.40;;;2.17;;
12412;SDS011;13877;18.896;-99.222;2023-10-31T09:16:40;9.02;;;2.80;;
12412;SDS011;13877;18.896;-99.222;2023-10-31T09:19:07;7.03;;;3.00;;
12412;SDS011;13877;18.896;-99.222;2023-10-31T09:21:34;6.20;;;2.42;;
12412;SDS011;13877;18.896;-99.222;2023-10-31T09:24:01;11.55;;;2.67;;
12412;SDS011;13877;18.896;-99.222;2023-10-31T09:26:29;5.75;;;2.60;;
12412;SDS011;13877;18.896;-99.222;2023-10-31T09:28:55;7.38;;;2.50;;
12412;SDS011;13877;18.896;-99.222;2023-10-31T09:31:22;3.33;;;1.92;;
12412;SDS011;13877;18.896;-99.222;2023-10-31T09:33:49;10.57;;;2.28;;
12412;SDS011;13877;18.896;-99.222;2023-10-31T09:36:16;7.13;;;2.92;;
12412;SDS011;13877;18.896;-99.222;2023-10-31T09:38:44;5.93;;;2.22;;
12412;SDS011;13877;18.896;-99.222;2023-10-31T09:41:12;8.82;;;2.85;;
12412;SDS011;13877;18.896;-99.222;2023-10-31T09:43:40;5.15;;;2.33;;
12412;SDS011;13877;18.896;-99.222;2023-10-31T09:46:07;8.23;;;2.45;;
12412;SDS011;13877;18.896;-99.222;2023-10-31T09:48:36;4.05;;;2.58;;
12412;SDS011;13877;18.896;-99.222;2023-10-31T09:51:03;4.78;;;2.30;;
12412;SDS011;13877;18.896;-99.222;2023-10-31T09:53:32;4.40;;;2.40;;
12412;SDS011;13877;18.896;-99.222;2023-10-31T09:58:30;10.50;;;2.10;;
12412;SDS011;13877;18.896;-99.222;2023-10-31T10:00:57;6.85;;;2.35;;
12412;SDS011;13877;18.896;-99.222;2023-10-31T10:03:24;7.05;;;1.83;;
12412;SDS011;13877;18.896;-99.222;2023-10-31T10:05:51;2.53;;;1.85;;
12412;SDS011;13877;18.896;-99.222;2023-10-31T10:08:22;6.95;;;2.10;;
12412;SDS011;13877;18.896;-99.222;2023-10-31T10:10:49;7.53;;;2.47;;
12412;SDS011;13877;18.896;-99.222;2023-10-31T10:13:20;7.75;;;2.30;;
12412;SDS011;13877;18.896;-99.222;2023-10-31T10:15:48;7.65;;;2.10;;
12412;SDS011;13877;18.896;-99.222;2023-10-31T10:18:24;8.05;;;2.15;;
12412;SDS011;13877;18.896;-99.222;2023-10-31T10:20:55;6.05;;;1.80;;
12412;SDS011;13877;18.896;-99.222;2023-10-31T10:23:29;5.00;;;2.28;;
12412;SDS011;13877;18.896;-99.222;2023-10-31T10:25:56;8.45;;;2.50;;
12412;SDS011;13877;18.896;-99.222;2023-10-31T10:28:24;3.30;;;1.88;;
12412;SDS011;13877;18.896;-99.222;2023-10-31T10:30:52;4.30;;;1.80;;
12412;SDS011;13877;18.896;-99.222;2023-10-31T10:33:20;6.05;;;2.28;;
12412;SDS011;13877;18.896;-99.222;2023-10-31T10:35:48;5.15;;;2.10;;
12412;SDS011;13877;18.896;-99.222;2023-10-31T10:38:16;4.03;;;1.88;;
12412;SDS011;13877;18.896;-99.222;2023-10-31T10:40:44;4.10;;;2.10;;
12412;SDS011;13877;18.896;-99.222;2023-10-31T10:43:21;5.80;;;2.33;;
12412;SDS011;13877;18.896;-99.222;2023-10-31T10:45:58;8.75;;;2.28;;
12412;SDS011;13877;18.896;-99.222;2023-10-31T10:48:26;4.20;;;1.60;;
12412;SDS011;13877;18.896;-99.222;2023-10-31T10:50:57;7.60;;;2.63;;
12412;SDS011;13877;18.896;-99.222;2023-10-31T10:53:35;2.60;;;2.38;;
12412;SDS011;13877;18.896;-99.222;2023-10-31T10:56:28;11.18;;;2.15;;
12412;SDS011;13877;18.896;-99.222;2023-10-31T10:59:07;5.22;;;1.90;;
12412;SDS011;13877;18.896;-99.222;2023-10-31T11:01:41;4.32;;;1.92;;
12412;SDS011;13877;18.896;-99.222;2023-10-31T11:04:08;4.60;;;2.10;;
12412;SDS011;13877;18.896;-99.222;2023-10-31T11:06:37;2.45;;;1.70;;
12412;SDS011;13877;18.896;-99.222;2023-10-31T11:09:04;3.47;;;2.03;;
12412;SDS011;13877;18.896;-99.222;2023-10-31T11:11:32;6.03;;;1.52;;
12412;SDS011;13877;18.896;-99.222;2023-10-31T11:14:01;6.00;;;2.30;;
12412;SDS011;13877;18.896;-99.222;2023-10-31T11:16:30;2.53;;;1.85;;
12412;SDS011;13877;18.896;-99.222;2023-10-31T11:18:59;2.78;;;1.55;;
12412;SDS011;13877;18.896;-99.222;2023-10-31T11:21:29;3.60;;;1.98;;
12412;SDS011;13877;18.896;-99.222;2023-10-31T11:23:57;3.95;;;1.50;;
12412;SDS011;13877;18.896;-99.222;2023-10-31T11:26:26;2.90;;;1.75;;
12412;SDS011;13877;18.896;-99.222;2023-10-31T11:29:03;2.65;;;1.40;;
12412;SDS011;13877;18.896;-99.222;2023-10-31T11:31:35;3.65;;;1.90;;
12412;SDS011;13877;18.896;-99.222;2023-10-31T11:34:03;4.15;;;1.55;;
12412;SDS011;13877;18.896;-99.222;2023-10-31T11:36:32;1.90;;;1.50;;
12412;SDS011;13877;18.896;-99.222;2023-10-31T11:39:11;4.72;;;1.90;;
12412;SDS011;13877;18.896;-99.222;2023-10-31T11:41:39;6.38;;;1.73;;
12412;SDS011;13877;18.896;-99.222;2023-10-31T11:44:14;3.78;;;1.80;;
12412;SDS011;13877;18.896;-99.222;2023-10-31T11:46:41;7.95;;;1.80;;
12412;SDS011;13877;18.896;-99.222;2023-10-31T11:49:08;5.55;;;1.80;;
12412;SDS011;13877;18.896;-99.222;2023-10-31T11:51:35;4.97;;;1.60;;
12412;SDS011;13877;18.896;-99.222;2023-10-31T11:54:02;5.97;;;1.85;;
12412;SDS011;13877;18.896;-99.222;2023-10-31T11:56:33;9.77;;;1.42;;
12412;SDS011;13877;18.896;-99.222;2023-10-31T11:59:03;5.57;;;1.75;;
12412;SDS011;13877;18.896;-99.222;2023-10-31T12:01:33;4.55;;;1.70;;
12412;SDS011;13877;18.896;-99.222;2023-10-31T12:03:59;2.50;;;1.60;;
12412;SDS011;13877;18.896;-99.222;2023-10-31T12:06:26;4.70;;;1.80;;
12412;SDS011;13877;18.896;-99.222;2023-10-31T12:08:53;2.90;;;2.30;;
12412;SDS011;13877;18.896;-99.222;2023-10-31T12:11:27;8.73;;;6.88;;
12412;SDS011;13877;18.896;-99.222;2023-10-31T12:14:01;3.17;;;1.90;;
12412;SDS011;13877;18.896;-99.222;2023-10-31T12:16:32;3.97;;;2.08;;
12412;SDS011;13877;18.896;-99.222;2023-10-31T12:19:01;5.75;;;2.13;;
12412;SDS011;13877;18.896;-99.222;2023-10-31T12:24:09;7.13;;;1.90;;
12412;SDS011;13877;18.896;-99.222;2023-10-31T12:26:37;2.78;;;1.88;;
12412;SDS011;13877;18.896;-99.222;2023-10-31T12:31:42;7.85;;;2.22;;
12412;SDS011;13877;18.896;-99.222;2023-10-31T12:34:14;6.07;;;2.00;;
12412;SDS011;13877;18.896;-99.222;2023-10-31T12:36:42;3.63;;;1.90;;
12412;SDS011;13877;18.896;-99.222;2023-10-31T12:39:10;2.60;;;1.70;;
12412;SDS011;13877;18.896;-99.222;2023-10-31T12:41:39;2.85;;;1.58;;
12412;SDS011;13877;18.896;-99.222;2023-10-31T12:44:07;8.80;;;1.65;;
12412;SDS011;13877;18.896;-99.222;2023-10-31T12:49:12;4.47;;;1.73;;
12412;SDS011;13877;18.896;-99.222;2023-10-31T12:51:56;4.25;;;1.63;;
12412;SDS011;13877;18.896;-99.222;2023-10-31T12:54:34;4.10;;;1.50;;
12412;SDS011;13877;18.896;-99.222;2023-10-31T12:59:31;4.88;;;1.67;;
12412;SDS011;13877;18.896;-99.222;2023-10-31T13:01:59;11.75;;;1.40;;
12412;SDS011;13877;18.896;-99.222;2023-10-31T13:04:26;3.65;;;1.77;;
12412;SDS011;13877;18.896;-99.222;2023-10-31T13:07:04;5.18;;;1.80;;
12412;SDS011;13877;18.896;-99.222;2023-10-31T13:09:37;4.63;;;2.00;;
12412;SDS011;13877;18.896;-99.222;2023-10-31T13:12:06;12.35;;;1.90;;
12412;SDS011;13877;18.896;-99.222;2023-10-31T13:14:33;4.90;;;1.90;;
12412;SDS011;13877;18.896;-99.222;2023-10-31T13:17:02;8.77;;;2.15;;
12412;SDS011;13877;18.896;-99.222;2023-10-31T13:19:29;6.93;;;2.17;;
12412;SDS011;13877;18.896;-99.222;2023-10-31T13:21:56;9.18;;;2.15;;
12412;SDS011;13877;18.896;-99.222;2023-10-31T13:24:23;2.75;;;1.65;;
12412;SDS011;13877;18.896;-99.222;2023-10-31T13:26:50;8.05;;;1.83;;
12412;SDS011;13877;18.896;-99.222;2023-10-31T13:29:17;10.15;;;2.00;;
12412;SDS011;13877;18.896;-99.222;2023-10-31T13:31:45;2.75;;;1.65;;
12412;SDS011;13877;18.896;-99.222;2023-10-31T13:34:11;6.32;;;1.77;;
12412;SDS011;13877;18.896;-99.222;2023-10-31T13:36:38;4.55;;;1.70;;
12412;SDS011;13877;18.896;-99.222;2023-10-31T13:39:05;9.48;;;1.70;;
12412;SDS011;13877;18.896;-99.222;2023-10-31T13:41:32;6.60;;;2.33;;
12412;SDS011;13877;18.896;-99.222;2023-10-31T13:43:59;7.20;;;1.98;;
12412;SDS011;13877;18.896;-99.222;2023-10-31T13:46:29;9.60;;;2.72;;
12412;SDS011;13877;18.896;-99.222;2023-10-31T13:48:55;5.80;;;1.83;;
12412;SDS011;13877;18.896;-99.222;2023-10-31T13:51:22;6.95;;;1.95;;
12412;SDS011;13877;18.896;-99.222;2023-10-31T13:53:49;15.25;;;1.60;;
12412;SDS011;13877;18.896;-99.222;2023-10-31T13:56:16;8.10;;;1.83;;
12412;SDS011;13877;18.896;-99.222;2023-10-31T13:58:43;5.47;;;1.20;;
12412;SDS011;13877;18.896;-99.222;2023-10-31T14:01:10;3.90;;;1.40;;
12412;SDS011;13877;18.896;-99.222;2023-10-31T14:03:37;2.47;;;1.00;;
12412;SDS011;13877;18.896;-99.222;2023-10-31T14:06:04;1.10;;;1.00;;
12412;SDS011;13877;18.896;-99.222;2023-10-31T14:08:30;4.45;;;1.30;;
12412;SDS011;13877;18.896;-99.222;2023-10-31T14:10:57;3.95;;;1.10;;
12412;SDS011;13877;18.896;-99.222;2023-10-31T14:13:24;2.33;;;1.10;;
12412;SDS011;13877;18.896;-99.222;2023-10-31T14:15:51;4.13;;;1.20;;
12412;SDS011;13877;18.896;-99.222;2023-10-31T14:18:18;2.90;;;1.00;;
12412;SDS011;13877;18.896;-99.222;2023-10-31T14:20:45;3.45;;;1.20;;
12412;SDS011;13877;18.896;-99.222;2023-10-31T14:23:12;8.15;;;1.58;;
12412;SDS011;13877;18.896;-99.222;2023-10-31T14:25:38;6.22;;;1.25;;